Terminal Aerodrome Forecast
Issued by NWS Medford, OR

Home | Current Version | Previous Version | Text Only | Print | Product List | Glossary On
Versions: 1 2 3 4 5 6 7 8 9 10 11 12 13 14
000
FTUS46 KMFR 302341
TAFMFR
TAF
KMFR 302341Z 3100/3124 05005KT P6SM BKN250
     FM310800 VRB03KT P6SM SCT080 OVC120
     FM311100 VRB03KT P6SM -SHRA SCT035 OVC060
     FM311300 33004KT P6SM -SHRA BKN025 OVC050
     FM311700 33012G20KT P6SM -SHRA SCT030 BKN050=

USA.gov is the U.S. government's official web portal to all federal, state and local government web resources and services.